Time;durP1;ratioP1;P1;durP2;ratioP2;P2;SDS_P1;SDS_P2;PMS_P1;PMS_P2;Temp;Humidity;BMP_temperature;BMP_pressure;BME280_temperature;BME280_humidity;BME280_pressure;Samples;Min_cycle;Max_cycle;Signal;HPM_P1;HPM_P2
2022/05/01 00:01:27;;;;;;;0.40;0.20;;;7.90;99.90;;;;;;5011210;28;20420;-72
2022/05/01 00:03:53;;;;;;;0.80;0.80;;;8.00;99.90;;;;;;5010698;28;20384;-72
2022/05/01 00:06:19;;;;;;;0.40;0.20;;;8.10;99.90;;;;;;5010734;28;20938;-72
2022/05/01 00:08:46;;;;;;;0.40;0.20;;;8.10;99.90;;;;;;5009025;28;20715;-73
2022/05/01 00:11:13;;;;;;;0.40;0.38;;;8.10;99.90;;;;;;5026121;28;20468;-72
2022/05/01 00:13:39;;;;;;;0.40;0.30;;;7.80;99.90;;;;;;5010647;28;20427;-72
2022/05/01 00:16:05;;;;;;;0.40;0.30;;;7.90;99.90;;;;;;5009382;28;20404;-72
2022/05/01 00:18:30;;;;;;;0.40;0.20;;;7.80;99.90;;;;;;5006429;28;20453;-72
2022/05/01 00:20:56;;;;;;;0.40;0.20;;;7.80;99.90;;;;;;4989508;28;20393;-72
2022/05/01 00:23:22;;;;;;;0.40;0.20;;;7.70;99.90;;;;;;4991496;28;20421;-72
2022/05/01 00:25:48;;;;;;;0.40;0.30;;;7.70;99.90;;;;;;4992005;28;20471;-72
2022/05/01 00:28:14;;;;;;;0.40;0.20;;;7.60;99.90;;;;;;5008482;28;20388;-72
2022/05/01 00:30:41;;;;;;;0.40;0.20;;;7.70;99.90;;;;;;5010573;28;20742;-71
2022/05/01 00:38:37;;;;;;;0.40;0.20;;;7.80;99.90;;;;;;4997697;28;20454;-72
2022/05/01 00:41:05;;;;;;;0.70;0.70;;;7.60;99.90;;;;;;5010259;28;20492;-73
2022/05/01 00:43:31;;;;;;;0.40;0.30;;;7.60;99.90;;;;;;5010792;28;20393;-72
2022/05/01 00:45:57;;;;;;;0.40;0.20;;;7.70;99.90;;;;;;5011172;28;20392;-72
2022/05/01 00:48:23;;;;;;;0.40;0.20;;;7.70;99.90;;;;;;5009730;28;20396;-72
2022/05/01 00:50:49;;;;;;;0.40;0.20;;;7.60;99.90;;;;;;5009430;28;20409;-72
2022/05/01 00:53:15;;;;;;;0.40;0.20;;;7.60;99.90;;;;;;5009922;28;20396;-73
2022/05/01 00:55:41;;;;;;;0.40;0.20;;;7.60;99.90;;;;;;5010961;28;20389;-72
2022/05/01 00:58:07;;;;;;;0.40;0.20;;;7.60;99.90;;;;;;5010425;28;20434;-72
2022/05/01 01:00:35;;;;;;;0.90;0.90;;;7.50;99.90;;;;;;5005845;28;20399;-72
2022/05/01 01:03:01;;;;;;;0.45;0.38;;;7.40;99.90;;;;;;5005057;28;20381;-72
2022/05/01 01:05:27;;;;;;;0.40;0.20;;;7.40;99.90;;;;;;5010013;28;20389;-72
2022/05/01 01:07:53;;;;;;;0.40;0.20;;;7.30;99.90;;;;;;5009342;28;20753;-72
2022/05/01 01:10:20;;;;;;;0.40;0.20;;;7.30;99.90;;;;;;5009528;28;20400;-71
2022/05/01 01:12:55;;;;;;;0.40;0.20;;;7.20;99.90;;;;;;5021860;28;20430;-72
2022/05/01 01:15:21;;;;;;;0.40;0.20;;;7.30;99.90;;;;;;5009753;28;20470;-72
2022/05/01 01:17:52;;;;;;;0.60;0.60;;;7.20;99.90;;;;;;5009405;28;20474;-72
2022/05/01 01:20:31;;;;;;;0.40;0.20;;;7.20;99.90;;;;;;5010107;28;20396;-73
2022/05/01 01:22:59;;;;;;;0.40;0.30;;;7.10;99.90;;;;;;5009497;28;20484;-72
2022/05/01 01:25:32;;;;;;;0.40;0.20;;;7.20;99.90;;;;;;5009135;28;20400;-72
2022/05/01 01:28:03;;;;;;;0.40;0.20;;;7.30;99.90;;;;;;5000342;28;20492;-72
2022/05/01 01:33:23;;;;;;;0.40;0.20;;;7.10;99.90;;;;;;5013073;28;20384;-72
2022/05/01 01:35:50;;;;;;;0.40;0.20;;;7.00;99.90;;;;;;5012888;28;20401;-73
2022/05/01 01:38:16;;;;;;;0.40;0.20;;;6.90;99.90;;;;;;5013533;28;20447;-72
2022/05/01 01:40:51;;;;;;;0.40;0.20;;;6.90;99.90;;;;;;5013210;28;20850;-73
2022/05/01 01:43:24;;;;;;;0.40;0.20;;;6.80;99.90;;;;;;5013320;28;20393;-72
2022/05/01 01:45:50;;;;;;;0.40;0.20;;;6.80;99.90;;;;;;5012624;28;20389;-73
2022/05/01 01:48:20;;;;;;;0.40;0.25;;;6.80;99.90;;;;;;5012547;28;20735;-73
2022/05/01 01:51:03;;;;;;;0.40;0.20;;;6.90;99.90;;;;;;5002131;28;20417;-72
2022/05/01 01:53:31;;;;;;;0.40;0.30;;;6.80;99.90;;;;;;5013098;28;20963;-72
2022/05/01 01:55:58;;;;;;;0.50;0.50;;;6.70;99.90;;;;;;5012493;28;20469;-73
2022/05/01 01:58:27;;;;;;;0.40;0.20;;;6.70;99.90;;;;;;5012791;28;20396;-72
2022/05/01 02:00:53;;;;;;;0.40;0.20;;;6.70;99.90;;;;;;5013223;28;20388;-72
2022/05/01 02:03:19;;;;;;;0.40;0.20;;;6.70;99.90;;;;;;5012472;28;20443;-72
2022/05/01 02:05:46;;;;;;;0.40;0.20;;;6.80;99.90;;;;;;5028080;28;20467;-72
2022/05/01 02:08:13;;;;;;;0.40;0.20;;;6.70;99.90;;;;;;5012101;28;20477;-73
2022/05/01 02:10:39;;;;;;;0.40;0.20;;;6.70;99.90;;;;;;5012799;28;20384;-72
2022/05/01 02:13:06;;;;;;;0.40;0.20;;;6.80;99.90;;;;;;5005426;28;20405;-73
2022/05/01 02:15:33;;;;;;;0.40;0.30;;;6.80;99.90;;;;;;4998671;28;20787;-72
2022/05/01 02:18:00;;;;;;;0.40;0.20;;;6.80;99.90;;;;;;4995919;28;20430;-72
2022/05/01 02:20:27;;;;;;;0.40;0.20;;;6.80;99.90;;;;;;5012240;28;20384;-72
2022/05/01 02:22:53;;;;;;;0.40;0.20;;;6.80;99.90;;;;;;5013028;28;20384;-72
2022/05/01 02:25:21;;;;;;;0.40;0.20;;;6.80;99.90;;;;;;5012167;28;20385;-72
2022/05/01 02:27:47;;;;;;;0.40;0.20;;;6.80;99.90;;;;;;5006314;28;20399;-72
2022/05/01 02:30:13;;;;;;;0.70;0.70;;;6.80;99.90;;;;;;5012763;28;20394;-72
2022/05/01 02:32:40;;;;;;;0.40;0.20;;;6.70;99.90;;;;;;5026733;28;20506;-72
2022/05/01 02:35:07;;;;;;;0.40;0.20;;;6.70;99.90;;;;;;5032179;28;20398;-72
2022/05/01 02:37:33;;;;;;;0.40;0.30;;;6.60;99.90;;;;;;5031308;28;20403;-72
2022/05/01 02:39:59;;;;;;;0.40;0.20;;;6.60;99.90;;;;;;5030525;28;20863;-72
2022/05/01 02:42:25;;;;;;;0.40;0.20;;;6.50;99.90;;;;;;5027061;28;20399;-73
2022/05/01 02:44:50;;;;;;;0.40;0.30;;;6.30;99.90;;;;;;5010880;28;20389;-72
2022/05/01 02:47:16;;;;;;;0.40;0.40;;;6.20;99.90;;;;;;5012080;28;20405;-72
2022/05/01 02:49:42;;;;;;;0.40;0.20;;;6.30;99.90;;;;;;5012242;28;20385;-72
2022/05/01 02:52:09;;;;;;;0.40;0.30;;;6.40;99.90;;;;;;5012336;28;20786;-72
2022/05/01 02:54:35;;;;;;;0.40;0.20;;;6.20;99.90;;;;;;5010124;28;21048;-73
2022/05/01 02:57:01;;;;;;;0.40;0.30;;;6.10;99.90;;;;;;5011816;28;20480;-72
2022/05/01 02:59:27;;;;;;;0.40;0.30;;;6.20;99.90;;;;;;5011950;28;20422;-72
2022/05/01 03:01:55;;;;;;;1.10;0.50;;;6.20;99.90;;;;;;5011031;28;20396;-72
2022/05/01 03:04:21;;;;;;;0.60;0.50;;;6.10;99.90;;;;;;5011709;28;20421;-72
2022/05/01 03:06:47;;;;;;;0.40;0.20;;;6.20;99.90;;;;;;5011437;28;20405;-73
2022/05/01 03:09:13;;;;;;;0.40;0.20;;;6.20;99.90;;;;;;5011884;28;20381;-73
2022/05/01 03:11:39;;;;;;;0.40;0.20;;;6.10;99.90;;;;;;5011259;28;20419;-72
2022/05/01 03:14:05;;;;;;;0.40;0.30;;;6.10;99.90;;;;;;5011450;28;20443;-72
2022/05/01 03:16:30;;;;;;;0.40;0.20;;;6.10;99.90;;;;;;5011624;28;20492;-72
2022/05/01 03:24:25;;;;;;;0.40;0.30;;;6.10;99.90;;;;;;5012032;28;20780;-71
2022/05/01 03:26:51;;;;;;;0.40;0.20;;;6.20;99.90;;;;;;5011531;28;20397;-71
2022/05/01 03:29:17;;;;;;;0.50;0.50;;;6.10;99.90;;;;;;5010529;28;20377;-71
2022/05/01 03:31:45;;;;;;;0.40;0.20;;;6.10;99.90;;;;;;5018911;28;20490;-72
2022/05/01 03:34:11;;;;;;;0.40;0.20;;;6.60;99.90;;;;;;5030579;28;20389;-73
2022/05/01 03:36:37;;;;;;;0.40;0.20;;;6.10;99.90;;;;;;5017401;28;20400;-72
2022/05/01 03:39:05;;;;;;;0.50;0.50;;;6.10;99.90;;;;;;5011215;28;20832;-72
2022/05/01 03:41:32;;;;;;;0.40;0.22;;;6.20;99.90;;;;;;5011297;28;20389;-72
2022/05/01 03:43:58;;;;;;;0.40;0.30;;;5.90;99.90;;;;;;5011598;28;20396;-72
2022/05/01 03:46:25;;;;;;;0.40;0.30;;;5.80;99.90;;;;;;5009937;28;20555;-72
2022/05/01 03:48:51;;;;;;;0.40;0.30;;;5.90;99.90;;;;;;5011854;28;20924;-72
2022/05/01 03:51:18;;;;;;;0.40;0.20;;;6.10;99.90;;;;;;5010630;28;20512;-73
2022/05/01 03:53:45;;;;;;;0.40;0.30;;;6.00;99.90;;;;;;5011641;28;20439;-72
2022/05/01 03:56:11;;;;;;;0.40;0.30;;;5.90;99.90;;;;;;5011107;28;20440;-72
2022/05/01 03:58:38;;;;;;;0.40;0.20;;;5.90;99.90;;;;;;5010759;28;20746;-72
2022/05/01 04:01:03;;;;;;;0.40;0.40;;;5.70;99.90;;;;;;5011321;28;20385;-72
2022/05/01 04:03:30;;;;;;;0.40;0.30;;;5.80;99.90;;;;;;5010651;28;20439;-72
2022/05/01 04:05:55;;;;;;;0.40;0.20;;;5.90;99.90;;;;;;5010631;28;20428;-72
2022/05/01 04:08:21;;;;;;;0.40;0.20;;;5.90;99.90;;;;;;5010613;28;20432;-72
2022/05/01 04:10:47;;;;;;;0.40;0.20;;;5.70;99.90;;;;;;5009832;28;20761;-73
2022/05/01 04:13:13;;;;;;;0.40;0.20;;;5.70;99.90;;;;;;5011207;28;20396;-72
2022/05/01 04:15:41;;;;;;;0.40;0.20;;;5.70;99.90;;;;;;5010454;28;20381;-72
2022/05/01 04:18:08;;;;;;;0.40;0.20;;;5.60;99.90;;;;;;5011220;28;20941;-72
2022/05/01 04:20:35;;;;;;;0.90;0.80;;;5.60;99.90;;;;;;5010973;28;20429;-72
2022/05/01 04:23:03;;;;;;;0.45;0.43;;;5.60;99.90;;;;;;5010178;28;20901;-72
2022/05/01 04:25:30;;;;;;;0.43;0.43;;;5.50;99.90;;;;;;5010900;28;20400;-72
2022/05/01 04:28:01;;;;;;;0.40;0.30;;;5.60;99.90;;;;;;5010259;28;20413;-72
2022/05/01 04:30:27;;;;;;;0.40;0.30;;;5.70;99.90;;;;;;5009762;28;20407;-73
2022/05/01 04:33:07;;;;;;;0.40;0.20;;;5.60;99.90;;;;;;5010311;28;20455;-73
2022/05/01 04:35:42;;;;;;;0.40;0.30;;;5.60;99.90;;;;;;5010935;28;20400;-72
2022/05/01 04:38:10;;;;;;;0.40;0.20;;;5.50;99.90;;;;;;5010056;28;20396;-72
2022/05/01 04:40:38;;;;;;;0.70;0.70;;;5.50;99.90;;;;;;5011223;28;20392;-72
2022/05/01 04:43:12;;;;;;;0.40;0.40;;;5.50;99.90;;;;;;5010520;28;20400;-72
2022/05/01 04:45:40;;;;;;;0.40;0.20;;;5.40;99.90;;;;;;5010979;28;20385;-72
2022/05/01 04:48:08;;;;;;;0.40;0.20;;;5.50;99.90;;;;;;5009613;28;20417;-73
2022/05/01 04:50:34;;;;;;;0.40;0.20;;;5.50;99.90;;;;;;5002256;28;20731;-72
2022/05/01 04:53:01;;;;;;;0.40;0.20;;;5.50;99.90;;;;;;4995713;28;20748;-72
2022/05/01 04:55:28;;;;;;;0.70;0.70;;;5.60;99.90;;;;;;4990508;28;20437;-72
2022/05/01 04:57:54;;;;;;;0.50;0.50;;;5.50;99.90;;;;;;5013999;28;20401;-72
2022/05/01 05:00:19;;;;;;;0.40;0.20;;;5.70;99.90;;;;;;4993177;28;20432;-72
2022/05/01 05:02:48;;;;;;;0.40;0.20;;;5.60;99.90;;;;;;4991294;28;20863;-72
2022/05/01 05:05:14;;;;;;;0.40;0.20;;;5.70;99.90;;;;;;5002250;28;20424;-74
2022/05/01 05:07:40;;;;;;;0.40;0.23;;;5.70;99.90;;;;;;5012583;28;20897;-72
2022/05/01 05:10:08;;;;;;;0.50;0.50;;;5.80;99.90;;;;;;5014553;28;20385;-72
2022/05/01 05:12:35;;;;;;;0.40;0.20;;;5.80;99.90;;;;;;5013450;28;20412;-72
2022/05/01 05:15:03;;;;;;;0.40;0.20;;;5.80;99.90;;;;;;5014548;28;20397;-73
2022/05/01 05:17:32;;;;;;;0.50;0.50;;;5.90;99.90;;;;;;5012397;28;20897;-72
2022/05/01 05:19:58;;;;;;;0.40;0.30;;;6.00;99.90;;;;;;5013998;28;20425;-72
2022/05/01 05:22:24;;;;;;;0.40;0.30;;;6.00;99.90;;;;;;5013702;28;20427;-73
2022/05/01 05:24:49;;;;;;;0.40;0.20;;;6.00;99.90;;;;;;5012980;28;20393;-72
2022/05/01 05:27:17;;;;;;;0.70;0.70;;;6.00;99.90;;;;;;5014054;28;20385;-72
2022/05/01 05:29:43;;;;;;;0.40;0.30;;;6.10;99.90;;;;;;5012992;28;20488;-72
2022/05/01 05:32:09;;;;;;;0.50;0.50;;;6.20;99.90;;;;;;5013961;28;20495;-72
2022/05/01 05:34:34;;;;;;;0.40;0.20;;;6.20;99.90;;;;;;5013758;28;20380;-74
2022/05/01 05:37:00;;;;;;;0.40;0.28;;;6.40;99.90;;;;;;5013071;28;20484;-72
2022/05/01 05:39:26;;;;;;;1.00;0.90;;;6.40;99.90;;;;;;5013302;28;20421;-72
2022/05/01 05:41:51;;;;;;;0.40;0.20;;;6.30;99.90;;;;;;5012207;28;20405;-72
2022/05/01 05:44:17;;;;;;;0.50;0.50;;;6.40;99.90;;;;;;5013842;28;20376;-72
2022/05/01 05:46:43;;;;;;;0.80;0.80;;;6.40;99.90;;;;;;5013975;28;20401;-74
2022/05/01 05:49:08;;;;;;;0.40;0.30;;;6.40;99.90;;;;;;5012512;28;20524;-73
2022/05/01 05:51:34;;;;;;;0.40;0.20;;;6.60;99.90;;;;;;5013446;28;20408;-73
2022/05/01 05:54:00;;;;;;;0.40;0.20;;;6.60;99.90;;;;;;5013210;28;20397;-73
2022/05/01 05:56:25;;;;;;;0.40;0.20;;;6.70;99.90;;;;;;5013606;28;20393;-73
2022/05/01 05:58:52;;;;;;;0.40;0.20;;;6.70;99.90;;;;;;5013951;28;20389;-73
2022/05/01 06:01:18;;;;;;;0.40;0.40;;;6.80;99.90;;;;;;5012545;28;20396;-73
2022/05/01 06:03:43;;;;;;;0.40;0.20;;;6.80;99.90;;;;;;5013384;28;20415;-73
2022/05/01 06:06:09;;;;;;;0.40;0.40;;;7.00;99.90;;;;;;5012397;28;20399;-73
2022/05/01 06:08:35;;;;;;;0.50;0.50;;;7.10;99.90;;;;;;5013329;28;20467;-73
2022/05/01 06:11:01;;;;;;;0.40;0.20;;;7.30;99.90;;;;;;5012705;28;20444;-73
2022/05/01 06:13:27;;;;;;;0.40;0.20;;;7.40;99.90;;;;;;5012535;28;20415;-73
2022/05/01 06:15:53;;;;;;;0.40;0.30;;;7.50;99.90;;;;;;5013303;28;20846;-73
2022/05/01 06:18:19;;;;;;;0.40;0.25;;;7.50;99.90;;;;;;5011054;28;20413;-73
2022/05/01 06:20:44;;;;;;;0.40;0.30;;;7.60;99.90;;;;;;5012930;28;20397;-73
2022/05/01 06:23:10;;;;;;;0.40;0.20;;;7.70;99.90;;;;;;5011600;28;20762;-73
2022/05/01 06:25:38;;;;;;;0.40;0.20;;;7.90;99.90;;;;;;5012403;28;20384;-73
2022/05/01 06:28:05;;;;;;;0.40;0.20;;;7.80;99.90;;;;;;5012854;28;20396;-72
2022/05/01 06:30:32;;;;;;;0.50;0.50;;;7.90;99.90;;;;;;5011058;28;20741;-72
2022/05/01 06:32:58;;;;;;;0.40;0.30;;;8.00;99.90;;;;;;5022540;28;20467;-72
2022/05/01 06:35:31;;;;;;;0.40;0.20;;;8.10;99.90;;;;;;5012216;28;20396;-73
2022/05/01 06:37:59;;;;;;;0.40;0.20;;;8.20;99.90;;;;;;5012547;28;20416;-72
2022/05/01 06:40:25;;;;;;;0.50;0.50;;;8.20;99.90;;;;;;5012180;28;20479;-73
2022/05/01 06:42:51;;;;;;;0.40;0.20;;;8.30;99.90;;;;;;5027521;28;20381;-72
2022/05/01 06:45:17;;;;;;;0.80;0.60;;;8.50;99.90;;;;;;5011939;28;20397;-72
2022/05/01 06:47:42;;;;;;;0.40;0.20;;;8.60;99.90;;;;;;5011178;28;20424;-72
2022/05/01 06:50:08;;;;;;;0.40;0.20;;;8.60;99.90;;;;;;5011763;28;20407;-72
2022/05/01 06:52:34;;;;;;;0.40;0.20;;;8.60;99.90;;;;;;5010223;28;20424;-73
2022/05/01 06:55:00;;;;;;;0.40;0.20;;;8.80;99.90;;;;;;5011181;28;20408;-72
2022/05/01 06:57:26;;;;;;;0.40;0.20;;;9.00;99.90;;;;;;5012370;28;20468;-72
2022/05/01 06:59:52;;;;;;;0.40;0.20;;;9.20;99.90;;;;;;5011637;28;20921;-72
2022/05/01 07:02:18;;;;;;;0.40;0.30;;;9.30;99.90;;;;;;5011655;28;20399;-71
2022/05/01 07:04:44;;;;;;;0.40;0.20;;;9.40;99.90;;;;;;5011280;28;20424;-73
2022/05/01 07:07:10;;;;;;;0.40;0.20;;;9.60;99.90;;;;;;5028904;28;20395;-72
2022/05/01 07:09:36;;;;;;;0.40;0.30;;;9.60;99.90;;;;;;5012172;28;20393;-71
2022/05/01 07:12:01;;;;;;;0.40;0.20;;;9.60;99.90;;;;;;5011452;28;20482;-72
2022/05/01 07:14:27;;;;;;;0.60;0.60;;;9.80;99.90;;;;;;5012297;28;20391;-71
2022/05/01 07:16:54;;;;;;;1.20;1.00;;;9.80;99.90;;;;;;5013154;28;20389;-72
2022/05/01 07:19:20;;;;;;;1.30;1.30;;;9.80;99.90;;;;;;5030078;28;20405;-72
2022/05/01 07:21:45;;;;;;;1.00;0.80;;;9.80;99.90;;;;;;5009039;28;20421;-73
2022/05/01 07:24:11;;;;;;;1.00;0.60;;;9.80;99.90;;;;;;5008062;28;20571;-72
2022/05/01 07:26:37;;;;;;;0.40;0.20;;;9.80;99.90;;;;;;5005060;28;20403;-71
2022/05/01 07:29:04;;;;;;;0.40;0.20;;;9.80;99.90;;;;;;5008865;28;20878;-72
2022/05/01 07:31:30;;;;;;;0.40;0.30;;;10.00;99.90;;;;;;5016665;28;20414;-72
2022/05/01 07:33:56;;;;;;;0.40;0.20;;;10.00;99.90;;;;;;5014663;28;20401;-73
2022/05/01 07:36:23;;;;;;;1.10;1.00;;;9.80;99.90;;;;;;5010600;28;20415;-73
2022/05/01 07:38:49;;;;;;;0.40;0.30;;;9.90;99.90;;;;;;5011255;28;20936;-72
2022/05/01 07:41:18;;;;;;;0.50;0.50;;;9.90;99.90;;;;;;5010385;28;20451;-71
2022/05/01 07:43:44;;;;;;;0.40;0.20;;;10.10;99.90;;;;;;5011176;28;20878;-71
2022/05/01 07:46:10;;;;;;;0.60;0.60;;;10.20;99.90;;;;;;5028987;28;20379;-72
2022/05/01 07:48:36;;;;;;;0.40;0.20;;;10.30;99.90;;;;;;5014664;28;20415;-71
2022/05/01 07:51:03;;;;;;;0.40;0.40;;;10.20;99.90;;;;;;5030727;28;20474;-72
2022/05/01 07:53:28;;;;;;;0.40;0.20;;;10.40;99.90;;;;;;5008032;28;20447;-72
2022/05/01 07:55:56;;;;;;;0.40;0.30;;;10.50;99.90;;;;;;5012242;28;20805;-72
2022/05/01 07:58:22;;;;;;;0.50;0.50;;;10.50;99.90;;;;;;5008383;28;20471;-72
2022/05/01 08:00:48;;;;;;;0.40;0.30;;;10.40;99.90;;;;;;5004069;28;20955;-73
2022/05/01 08:05:59;;;;;;;0.40;0.30;;;10.50;99.90;;;;;;5031328;28;20385;-73
2022/05/01 08:08:26;;;;;;;0.40;0.30;;;10.50;99.90;;;;;;5007479;28;20409;-73
2022/05/01 08:10:51;;;;;;;0.60;0.60;;;10.60;99.90;;;;;;5004910;28;20419;-73
2022/05/01 08:13:18;;;;;;;2.10;1.10;;;10.70;99.90;;;;;;5015818;28;20403;-72
2022/05/01 08:15:44;;;;;;;1.50;0.80;;;10.80;99.90;;;;;;5006005;28;20409;-72
2022/05/01 08:21:05;;;;;;;0.70;0.70;;;10.90;99.90;;;;;;5000979;28;20399;-72
2022/05/01 08:23:32;;;;;;;0.60;0.50;;;10.80;99.90;;;;;;5006769;28;20396;-74
2022/05/01 08:26:02;;;;;;;0.40;0.30;;;10.90;99.90;;;;;;4997698;28;20466;-72
2022/05/01 08:28:35;;;;;;;0.40;0.40;;;11.10;99.90;;;;;;5006713;28;20411;-72
2022/05/01 08:31:03;;;;;;;0.40;0.20;;;11.20;99.90;;;;;;4995355;28;20432;-73
2022/05/01 08:33:29;;;;;;;0.40;0.20;;;11.40;99.90;;;;;;5019839;28;20811;-73
2022/05/01 08:35:55;;;;;;;0.40;0.20;;;11.10;99.90;;;;;;4999735;28;20726;-73
2022/05/01 08:38:21;;;;;;;0.40;0.40;;;11.10;99.90;;;;;;5007322;28;20432;-73
2022/05/01 08:40:49;;;;;;;0.40;0.20;;;10.90;99.90;;;;;;5003807;28;20830;-72
2022/05/01 08:43:15;;;;;;;0.40;0.20;;;11.10;99.90;;;;;;5004089;28;20403;-72
2022/05/01 08:45:56;;;;;;;0.40;0.30;;;11.50;99.90;;;;;;5007999;28;20408;-72
2022/05/01 08:48:36;;;;;;;0.40;0.30;;;11.60;99.90;;;;;;5011685;28;20865;-72
2022/05/01 08:51:04;;;;;;;0.40;0.20;;;11.60;99.90;;;;;;5012032;28;20416;-72
2022/05/01 08:53:31;;;;;;;0.50;0.50;;;11.40;99.90;;;;;;5003340;28;20394;-72
2022/05/01 08:55:58;;;;;;;0.40;0.20;;;11.60;99.90;;;;;;5003005;28;20409;-72
2022/05/01 08:58:28;;;;;;;0.40;0.20;;;11.60;99.90;;;;;;5011428;28;20393;-72
2022/05/01 09:00:54;;;;;;;0.80;0.50;;;11.40;99.90;;;;;;5012833;28;20411;-72
2022/05/01 09:03:19;;;;;;;0.40;0.30;;;11.80;99.90;;;;;;5015597;28;20392;-72
2022/05/01 09:05:45;;;;;;;0.40;0.20;;;11.70;99.90;;;;;;5008885;28;20407;-72
2022/05/01 09:08:11;;;;;;;0.40;0.20;;;12.00;99.90;;;;;;5013064;28;20393;-71
2022/05/01 09:10:40;;;;;;;0.40;0.20;;;11.80;99.90;;;;;;5006790;28;20395;-72
2022/05/01 09:13:07;;;;;;;0.40;0.20;;;12.20;99.90;;;;;;5010603;28;20777;-72
2022/05/01 09:15:43;;;;;;;0.40;0.30;;;12.40;99.90;;;;;;5013903;28;20396;-72
2022/05/01 09:18:11;;;;;;;1.10;1.00;;;12.40;99.90;;;;;;5016579;28;20409;-72
2022/05/01 09:20:57;;;;;;;0.40;0.20;;;12.40;99.90;;;;;;5033849;28;20395;-71
2022/05/01 09:23:36;;;;;;;0.40;0.20;;;12.30;99.90;;;;;;5010928;28;21017;-69
2022/05/01 09:26:02;;;;;;;0.40;0.40;;;12.00;99.90;;;;;;5015781;28;20404;-71
2022/05/01 09:28:28;;;;;;;0.40;0.20;;;12.10;99.90;;;;;;5033599;28;20391;-71
2022/05/01 09:30:54;;;;;;;0.40;0.30;;;12.20;99.90;;;;;;5024718;28;20385;-72
2022/05/01 09:33:20;;;;;;;0.40;0.40;;;12.40;99.90;;;;;;5013944;28;20900;-71
2022/05/01 09:35:46;;;;;;;0.40;0.20;;;12.60;99.90;;;;;;5014104;28;20396;-72
2022/05/01 09:38:25;;;;;;;0.40;0.30;;;12.40;99.90;;;;;;5011390;28;20828;-74
2022/05/01 09:40:58;;;;;;;0.40;0.37;;;12.30;99.90;;;;;;5013328;28;20408;-72
2022/05/01 09:43:53;;;;;;;0.47;0.47;;;12.40;99.90;;;;;;5012281;28;20424;-72
2022/05/01 09:46:24;;;;;;;0.57;0.57;;;12.60;99.90;;;;;;4996705;28;20406;-73
2022/05/01 09:49:04;;;;;;;0.40;0.40;;;12.90;99.90;;;;;;4999632;28;20396;-72
2022/05/01 09:51:32;;;;;;;0.40;0.30;;;12.90;99.90;;;;;;5012124;28;20901;-71
2022/05/01 09:53:59;;;;;;;1.10;1.00;;;13.00;99.90;;;;;;5012585;28;20773;-72
2022/05/01 09:56:26;;;;;;;0.70;0.70;;;13.10;99.90;;;;;;5008937;28;20393;-73
2022/05/01 09:59:02;;;;;;;0.40;0.30;;;13.00;99.90;;;;;;5018722;28;20455;-72
2022/05/01 10:01:29;;;;;;;0.90;0.90;;;13.00;99.90;;;;;;5007966;28;20412;-72
2022/05/01 10:03:57;;;;;;;0.40;0.40;;;13.20;99.90;;;;;;5007630;28;20406;-71
2022/05/01 10:06:24;;;;;;;0.95;0.95;;;13.00;99.90;;;;;;5012325;28;20426;-73
2022/05/01 10:08:50;;;;;;;1.00;1.00;;;13.10;99.90;;;;;;5010240;28;20410;-71
2022/05/01 10:11:17;;;;;;;0.40;0.20;;;13.40;99.90;;;;;;5006217;28;20414;-71
2022/05/01 10:13:45;;;;;;;0.60;0.60;;;13.40;99.90;;;;;;5002101;28;20476;-73
2022/05/01 10:16:15;;;;;;;1.10;0.67;;;13.30;99.90;;;;;;5004990;28;20611;-72
2022/05/01 10:18:43;;;;;;;0.40;0.40;;;13.40;99.90;;;;;;5009481;28;20499;-72
2022/05/01 10:21:09;;;;;;;0.88;0.88;;;13.50;99.90;;;;;;5011437;28;20889;-72
2022/05/01 10:23:35;;;;;;;0.40;0.30;;;13.50;99.90;;;;;;5012107;28;20390;-73
2022/05/01 10:26:07;;;;;;;1.40;1.30;;;13.60;99.90;;;;;;5012290;28;20435;-72
2022/05/01 10:29:01;;;;;;;0.80;0.80;;;13.70;99.90;;;;;;5004111;28;20938;-72
2022/05/01 10:35:02;;;;;;;0.40;0.30;;;13.80;98.80;;;;;;5001818;28;20397;-72
2022/05/01 10:37:30;;;;;;;0.40;0.20;;;13.80;99.90;;;;;;5000632;28;20415;-72
2022/05/01 10:39:58;;;;;;;0.68;0.60;;;13.90;99.80;;;;;;5011333;28;20404;-72
2022/05/01 10:42:46;;;;;;;0.40;0.40;;;13.70;98.90;;;;;;5012288;28;20483;-72
2022/05/01 10:45:21;;;;;;;0.40;0.20;;;14.60;99.90;;;;;;5012774;28;20861;-72
2022/05/01 10:47:51;;;;;;;2.50;1.50;;;14.80;97.20;;;;;;5012366;28;20443;-74
2022/05/01 10:50:21;;;;;;;0.60;0.60;;;14.20;97.50;;;;;;5012493;28;20393;-72
2022/05/01 10:53:08;;;;;;;0.40;0.20;;;14.70;97.60;;;;;;5012236;28;20419;-72
2022/05/01 10:55:49;;;;;;;1.50;1.40;;;14.60;98.10;;;;;;5012818;28;20393;-71
2022/05/01 10:58:32;;;;;;;0.40;0.40;;;14.30;96.40;;;;;;5012214;28;20385;-72
2022/05/01 11:00:57;;;;;;;0.40;0.20;;;14.30;97.00;;;;;;5011358;28;20385;-72
2022/05/01 11:03:26;;;;;;;0.40;0.20;;;14.10;97.10;;;;;;5012095;28;20440;-71
2022/05/01 11:06:13;;;;;;;0.40;0.30;;;14.50;96.60;;;;;;5011238;28;20404;-71
2022/05/01 11:08:40;;;;;;;0.55;0.55;;;14.50;95.60;;;;;;5012421;28;20401;-71
2022/05/01 11:11:10;;;;;;;0.40;0.30;;;14.70;94.90;;;;;;5011048;28;20420;-71
2022/05/01 11:13:38;;;;;;;0.80;0.80;;;15.00;94.70;;;;;;5012181;28;20471;-71
2022/05/01 11:16:07;;;;;;;0.80;0.80;;;15.00;94.50;;;;;;5011163;28;20389;-72
2022/05/01 11:19:00;;;;;;;0.40;0.30;;;15.40;92.50;;;;;;5012025;28;20385;-72
2022/05/01 11:21:26;;;;;;;0.40;0.30;;;15.30;93.60;;;;;;5011164;28;20405;-72
2022/05/01 11:24:03;;;;;;;1.40;1.30;;;15.40;90.90;;;;;;5012149;28;20403;-72
2022/05/01 11:26:30;;;;;;;0.40;0.20;;;15.80;91.20;;;;;;5011792;28;20381;-72
2022/05/01 11:29:14;;;;;;;0.90;0.60;;;15.70;90.10;;;;;;5011836;28;20418;-72
2022/05/01 11:31:43;;;;;;;0.57;0.57;;;15.90;90.30;;;;;;5018349;28;20414;-72
2022/05/01 11:34:19;;;;;;;0.40;0.20;;;16.20;88.80;;;;;;5030998;28;20423;-74
2022/05/01 11:37:05;;;;;;;0.40;0.20;;;17.40;83.50;;;;;;5031208;28;20403;-72
2022/05/01 11:39:46;;;;;;;0.60;0.60;;;17.60;80.50;;;;;;5030396;28;20826;-73
2022/05/01 11:42:27;;;;;;;0.80;0.80;;;17.80;82.40;;;;;;5031149;28;20875;-74
2022/05/01 11:44:55;;;;;;;0.40;0.20;;;18.10;78.90;;;;;;5031581;28;20421;-72
2022/05/01 11:47:26;;;;;;;0.40;0.20;;;17.00;80.30;;;;;;5030442;28;20383;-74
2022/05/01 11:49:52;;;;;;;0.40;0.32;;;17.60;77.80;;;;;;5031520;28;20449;-73
2022/05/01 11:52:19;;;;;;;0.40;0.40;;;17.50;78.30;;;;;;5030686;28;20442;-73
2022/05/01 11:54:54;;;;;;;0.95;0.90;;;17.20;79.90;;;;;;5031095;28;20402;-72
2022/05/01 12:03:00;;;;;;;0.40;0.30;;;18.20;81.20;;;;;;5031114;28;20398;-73
2022/05/01 12:05:28;;;;;;;0.60;0.40;;;18.20;75.70;;;;;;5030087;28;20396;-73
2022/05/01 12:07:57;;;;;;;1.10;0.70;;;17.10;79.00;;;;;;5031083;28;20403;-73
2022/05/01 12:10:26;;;;;;;0.40;0.20;;;18.30;77.80;;;;;;5030946;28;20394;-72
2022/05/01 12:12:52;;;;;;;0.70;0.60;;;18.80;75.30;;;;;;5030852;28;20411;-75
2022/05/01 12:15:18;;;;;;;1.10;1.00;;;18.20;75.40;;;;;;5031179;28;20490;-72
2022/05/01 12:17:44;;;;;;;0.40;0.30;;;18.90;74.60;;;;;;5030186;28;20474;-73
2022/05/01 12:20:11;;;;;;;0.40;0.30;;;18.00;73.90;;;;;;5030918;28;20529;-73
2022/05/01 12:22:37;;;;;;;0.40;0.40;;;18.60;80.00;;;;;;5029947;28;20410;-73
2022/05/01 12:25:07;;;;;;;0.40;0.30;;;18.20;74.10;;;;;;5030819;28;20390;-72
2022/05/01 12:27:34;;;;;;;0.40;0.20;;;19.50;72.40;;;;;;5030555;28;20832;-74
2022/05/01 12:30:04;;;;;;;0.40;0.30;;;20.20;68.90;;;;;;5030562;28;20386;-73
2022/05/01 12:32:31;;;;;;;0.40;0.20;;;19.30;67.70;;;;;;5032456;28;20405;-73
2022/05/01 12:35:03;;;;;;;0.60;0.50;;;19.60;72.20;;;;;;5010133;28;20420;-74
2022/05/01 12:37:32;;;;;;;0.97;0.87;;;19.20;66.60;;;;;;5011253;28;20396;-72
2022/05/01 12:45:44;;;;;;;1.00;0.70;;;18.10;72.30;;;;;;5011345;28;20395;-73
2022/05/01 12:48:13;;;;;;;0.50;0.30;;;18.00;72.10;;;;;;5010962;28;20474;-72
2022/05/01 12:50:40;;;;;;;0.90;0.90;;;17.90;72.20;;;;;;5011176;28;20897;-73
2022/05/01 12:53:25;;;;;;;0.50;0.40;;;17.60;71.90;;;;;;5010048;28;20496;-72
2022/05/01 12:55:51;;;;;;;0.40;0.30;;;19.50;72.80;;;;;;5010034;28;20424;-73
2022/05/01 12:58:27;;;;;;;1.30;1.10;;;18.30;74.20;;;;;;5010920;28;20389;-73
2022/05/01 13:00:53;;;;;;;0.40;0.30;;;17.20;74.90;;;;;;5010068;28;20887;-73
2022/05/01 13:03:25;;;;;;;0.50;0.40;;;17.70;78.70;;;;;;5010623;28;20385;-73
2022/05/01 13:06:00;;;;;;;0.40;0.30;;;19.20;78.30;;;;;;5010320;28;20396;-74
2022/05/01 13:08:29;;;;;;;0.60;0.50;;;20.20;74.30;;;;;;5010484;28;20792;-73
2022/05/01 13:11:14;;;;;;;0.40;0.30;;;19.00;68.60;;;;;;5010164;28;20388;-75
2022/05/01 13:13:57;;;;;;;0.57;0.57;;;19.10;66.10;;;;;;5010572;28;20408;-71
2022/05/01 13:16:31;;;;;;;0.40;0.40;;;17.90;77.00;;;;;;5010221;28;20389;-71
2022/05/01 13:19:00;;;;;;;0.40;0.30;;;18.30;80.20;;;;;;5010624;28;20419;-73
2022/05/01 13:21:28;;;;;;;0.50;0.40;;;19.80;73.30;;;;;;5010551;28;20393;-71
2022/05/01 13:24:30;;;;;;;0.40;0.30;;;19.80;71.80;;;;;;5010254;28;20384;-71
2022/05/01 13:27:00;;;;;;;0.50;0.40;;;20.10;70.80;;;;;;5010355;28;20389;-71
2022/05/01 13:29:28;;;;;;;0.40;0.20;;;18.90;69.80;;;;;;5012948;28;20409;-71
2022/05/01 13:31:54;;;;;;;0.40;0.30;;;18.20;76.60;;;;;;5022671;28;20413;-72
2022/05/01 13:34:20;;;;;;;0.50;0.20;;;18.30;74.30;;;;;;5033076;28;20375;-71